Etusivu
METAR-TAF:

METAR-TAF

Lentoasemat :

Norrköping, Ruotsi

Leveyspiiri: 58-35N, Pituuspiiri: 016-09E, korkeus merenpinnasta: 34 m

Tämänhetkinen sää

Tämä raportti tehtiin 38 minuuttia sitten, kello 17.20 UTC
Tuuli 9 kn koillisesta
Lämpötila 3°C
Kosteus 81%
Ilmanpaine 1037 hPa
Näkyvyys 10 km tai enemmän
Hajonneita pilviä 1900 ft:n korkeudessa

METAR: ESSP 191720Z 05009KT 9999 BKN019 03/M00 Q1037

Aika: 18:58 (17:58 UTC)

Sääennuste

Tämä raportti tehtiin 28 minuuttia sitten, kello 17.30 UTC
Ennuste voimassa 19. päivästä klo 18 UTC - 19. päivään klo 23 UTC
Tuuli 8 kn koillisesta
Näkyvyys 10 km tai enemmän
Hajonneita pilviä 2000 ft:n korkeudessa
Todennäköisyys 40%
19. päivästä klo 18 UTC - 19. päivään klo 23 UTC
Hajonneita pilviä 2000 ft:n korkeudessa, Kasvava cumulus-pilvi.

TAF: ESSP 191730Z 1918/1923 05008KT 9999 BKN020 PROB40 1918/1923 BKN020TCU

Säähavainnot ja -ennusteet yli 4000 lentoasemalta (METAR- ja TAF-raportit).

Käytössä olevat sääasemat on merkitty karttaan keltaisilla ja punaisilla pisteillä.

Aseta hiiri pisteen päälle nähdäksesi sääaseman nimen.

Klikkaa sitten nähdäksesi säähavainnot ja -ennusteet.

Kartan vaihtaminen: klikkaa mustalla rastilla varustettuja vihreitä pisteitä, niin voit zoomata sisään; viivalla varustettua vihreää pistettä, niin voit zoomata ulos tai vihreitä nuolia, niin pääset viereisille kartoille.


METAR-TAF: